Terminal Aerodrome Forecast
Issued by NWS Quad Cities IA IL

Home | Current Version | Previous Version | Text Only | Print | Product List | Glossary Off
Versions: 1 2 3 4 5 6 7 8 9 10 11 12 13 14 15

354
FTUS43 KDVN 230520
TAFDBQ
TAF
KDBQ 230520Z 2306/2406 VRB03KT P6SM SCT250
      TEMPO 2310/2313 4SM BR
     FM231300 13005KT 6SM BR VCSH BKN070
     FM231600 14009KT P6SM BKN060
     FM232000 15008KT P6SM SCT100=

USA.gov is the U.S. government's official web portal to all federal, state and local government web resources and services.